Terminal Aerodrome Forecast
Issued by NWS Sterling, VA

Current Version | Previous Version | Graphics & Text | Print | Product List | Glossary On
Versions: 1 2 3 4 5 6 7 8 9 10 11 12 13 14 15 16 17 18 19 20 21 22 23 24 25 26
000
FTUS41 KLWX 271136
TAFDCA
TAF
KDCA 271136Z 2712/2812 36008KT 5SM RA OVC025
     FM271600 36009KT 5SM -RA OVC040
     FM271800 35007KT P6SM OVC040
     FM272100 35005KT P6SM BKN030
     FM272200 34006KT P6SM BKN040
     FM280300 33010KT P6SM BKN130=

USA.gov is the U.S. government's official web portal to all federal, state and local government web resources and services.